DLH462 EDDF-KMIA
Flight info
| Callsign | DLH462 |
|---|---|
| Flight time | N/A |
| Altitude | 33000 |
| Route | SOBRA2L/18 SOBRA Y180 DIK UN857 TOLVU DCT RAPOR DCT GIMER DCT ESTOC/N0474F350 UT300 ELCOB/N0473F340 UT300 SENLO UN502 JSY DCT LIZAD DCT LULOX/M082F340 DCT DINIM/M082F360 NATF ALLRY/N0485F360 N476B TOPPS/N0478F380 DCT BEEKN Q97 KALDA DCT BGBRD Q101 SKARP Y313 HOAGG BNFSH3 |
| Aircraft | A346/H-SDE2E3FGHIJ3J4J5M1RWXY/LB1D1 |
Departure
| Time | 2026-05-04 13:50 |
|---|---|
| Airport | Frankfurt Main Airport (EDDF) |
Arrival
| Time | N/A |
|---|---|
| Airport | Miami International Airport (KMIA) |
| Time | Latitude | Longitude | Altitude | Speed | Heading |
|---|---|---|---|---|---|
| 2026-05-04 13:01 | 50.04756 | 8.57114 | 364 ft | 0 kts | 120° |
| 2026-05-04 13:31 | 50.04761 | 8.57099 | 371 ft | 3 kts | 127° |
| 2026-05-04 13:31 | 50.04777 | 8.57076 | 369 ft | 3 kts | 149° |
| 2026-05-04 13:32 | 50.04796 | 8.57064 | 371 ft | 3 kts | 171° |
| 2026-05-04 13:32 | 50.04818 | 8.57063 | 371 ft | 3 kts | 187° |
| 2026-05-04 13:32 | 50.04841 | 8.57070 | 367 ft | 3 kts | 197° |
| 2026-05-04 13:32 | 50.04863 | 8.57083 | 370 ft | 3 kts | 203° |
| 2026-05-04 13:33 | 50.04872 | 8.57089 | 370 ft | 0 kts | 204° |
| 2026-05-04 13:33 | 50.04873 | 8.57089 | 370 ft | 0 kts | 204° |
| 2026-05-04 13:40 | 50.04872 | 8.57089 | 364 ft | 1 kts | 204° |
| 2026-05-04 13:40 | 50.04856 | 8.57078 | 368 ft | 5 kts | 203° |
| 2026-05-04 13:41 | 50.04826 | 8.57058 | 370 ft | 4 kts | 203° |
| 2026-05-04 13:41 | 50.04807 | 8.57045 | 366 ft | 4 kts | 203° |
| 2026-05-04 13:41 | 50.04763 | 8.57015 | 371 ft | 11 kts | 204° |
| 2026-05-04 13:42 | 50.04600 | 8.56909 | 369 ft | 9 kts | 194° |
| 2026-05-04 13:42 | 50.04569 | 8.56898 | 372 ft | 0 kts | 192° |
| 2026-05-04 13:42 | 50.04530 | 8.56885 | 367 ft | 10 kts | 193° |
| 2026-05-04 13:43 | 50.04462 | 8.56832 | 374 ft | 12 kts | 224° |
| 2026-05-04 13:43 | 50.04419 | 8.56698 | 366 ft | 15 kts | 250° |
| 2026-05-04 13:43 | 50.04382 | 8.56540 | 369 ft | 16 kts | 249° |
| 2026-05-04 13:43 | 50.04340 | 8.56372 | 366 ft | 17 kts | 249° |
| 2026-05-04 13:44 | 50.04297 | 8.56195 | 369 ft | 18 kts | 250° |
| 2026-05-04 13:44 | 50.04254 | 8.55999 | 368 ft | 20 kts | 251° |
| 2026-05-04 13:44 | 50.04202 | 8.55791 | 362 ft | 21 kts | 248° |
| 2026-05-04 13:44 | 50.04150 | 8.55569 | 363 ft | 22 kts | 250° |
| 2026-05-04 13:45 | 50.04095 | 8.55337 | 368 ft | 23 kts | 250° |
| 2026-05-04 13:45 | 50.04039 | 8.55101 | 363 ft | 24 kts | 249° |
| 2026-05-04 13:45 | 50.03979 | 8.54857 | 367 ft | 25 kts | 249° |
| 2026-05-04 13:45 | 50.03916 | 8.54602 | 359 ft | 26 kts | 249° |
| 2026-05-04 13:46 | 50.03842 | 8.54339 | 356 ft | 27 kts | 238° |
| 2026-05-04 13:46 | 50.03759 | 8.54081 | 360 ft | 27 kts | 251° |
| 2026-05-04 13:46 | 50.03697 | 8.53801 | 354 ft | 27 kts | 250° |
| 2026-05-04 13:46 | 50.03628 | 8.53519 | 354 ft | 28 kts | 248° |
| 2026-05-04 13:47 | 50.03558 | 8.53235 | 352 ft | 28 kts | 249° |
| 2026-05-04 13:47 | 50.03488 | 8.52952 | 349 ft | 28 kts | 249° |
| 2026-05-04 13:47 | 50.03419 | 8.52683 | 349 ft | 17 kts | 246° |
| 2026-05-04 13:47 | 50.03344 | 8.52595 | 349 ft | 13 kts | 184° |
| 2026-05-04 13:48 | 50.03315 | 8.52594 | 349 ft | 0 kts | 179° |
| 2026-05-04 13:49 | 50.03314 | 8.52594 | 349 ft | 2 kts | 179° |
| 2026-05-04 13:49 | 50.03190 | 8.52592 | 349 ft | 43 kts | 180° |
| 2026-05-04 13:49 | 50.02696 | 8.52601 | 351 ft | 97 kts | 179° |
| 2026-05-04 13:49 | 50.01847 | 8.52608 | 345 ft | 145 kts | 180° |
| 2026-05-04 13:50 | 50.00701 | 8.52625 | 341 ft | 183 kts | 179° |
| 2026-05-04 13:50 | 49.99380 | 8.52681 | 698 ft | 190 kts | 179° |
| 2026-05-04 13:50 | 49.98041 | 8.52770 | 1115 ft | 197 kts | 179° |
| 2026-05-04 13:50 | 49.96641 | 8.52884 | 1608 ft | 205 kts | 179° |
| 2026-05-04 13:51 | 49.95216 | 8.52922 | 2172 ft | 205 kts | 193° |
| 2026-05-04 13:51 | 49.93943 | 8.51954 | 2503 ft | 211 kts | 226° |
| 2026-05-04 13:51 | 49.93233 | 8.49919 | 2716 ft | 224 kts | 259° |
| 2026-05-04 13:51 | 49.92974 | 8.47455 | 3002 ft | 237 kts | 251° |
| 2026-05-04 13:52 | 49.91100 | 8.44259 | 3591 ft | 258 kts | 202° |
| 2026-05-04 13:52 | 49.88725 | 8.43646 | 4455 ft | 264 kts | 185° |
| 2026-05-04 13:52 | 49.86882 | 8.43527 | 5108 ft | 267 kts | 185° |
| 2026-05-04 13:53 | 49.85023 | 8.43430 | 5800 ft | 267 kts | 183° |
| 2026-05-04 13:53 | 49.83165 | 8.43340 | 6168 ft | 266 kts | 183° |
| 2026-05-04 13:53 | 49.81919 | 8.43269 | 6078 ft | 265 kts | 183° |
| 2026-05-04 13:54 | 49.78270 | 8.43050 | 5989 ft | 264 kts | 183° |
| 2026-05-04 13:54 | 49.76458 | 8.42731 | 5958 ft | 262 kts | 201° |
| 2026-05-04 13:54 | 49.74064 | 8.38749 | 6095 ft | 273 kts | 257° |
| 2026-05-04 13:55 | 49.74080 | 8.35800 | 6741 ft | 275 kts | 278° |
| 2026-05-04 13:55 | 49.75092 | 8.30051 | 7919 ft | 281 kts | 285° |
| 2026-05-04 13:55 | 49.75717 | 8.27165 | 8534 ft | 283 kts | 285° |
| 2026-05-04 13:56 | 49.76346 | 8.24256 | 9131 ft | 285 kts | 284° |
| 2026-05-04 13:56 | 49.76974 | 8.21316 | 9641 ft | 288 kts | 284° |
| 2026-05-04 13:56 | 49.78231 | 8.15341 | 10490 ft | 301 kts | 284° |
| 2026-05-04 13:57 | 49.78897 | 8.12145 | 10780 ft | 316 kts | 284° |
| 2026-05-04 13:57 | 49.79579 | 8.08873 | 11063 ft | 331 kts | 284° |
| 2026-05-04 13:58 | 49.81854 | 7.97980 | 11838 ft | 374 kts | 285° |
| 2026-05-04 13:58 | 49.83484 | 7.90144 | 12812 ft | 384 kts | 285° |
| 2026-05-04 13:58 | 49.84304 | 7.86183 | 13425 ft | 387 kts | 285° |
| 2026-05-04 13:59 | 49.85128 | 7.82186 | 13986 ft | 391 kts | 285° |
| 2026-05-04 13:59 | 49.85948 | 7.78139 | 14502 ft | 394 kts | 283° |
| 2026-05-04 13:59 | 49.87313 | 7.69834 | 15534 ft | 399 kts | 281° |
| 2026-05-04 14:00 | 49.87963 | 7.65618 | 16091 ft | 401 kts | 281° |
| 2026-05-04 14:00 | 49.89267 | 7.57117 | 17250 ft | 407 kts | 280° |
| 2026-05-04 14:00 | 49.89924 | 7.52827 | 17831 ft | 410 kts | 280° |
| 2026-05-04 14:01 | 49.90577 | 7.48562 | 18378 ft | 413 kts | 280° |
| 2026-05-04 14:01 | 49.91242 | 7.44197 | 18854 ft | 416 kts | 280° |